Toyofukumaru — JD2177 — position and weather

sailwx.info

Track history (hours):
 
Tides and Currents Weather Stations Pressure Air Temp Water Temp Dewpoint Dewpoint Depression Visibility Wind Speed Wind Dir Waves Ship Positions

Toyofukumaru

Last reported at 2017-Jan-22 21:33 UTC. Time now 2017-Jan-22 22:24 UTC.
Position N 34°28' E 135°04'.

Length 165 m; draft 6.2 m.

Type: Cargo ship. MMSI: 431200688.

Date/timePositionNaut miles runAvg speedWind from/ knotsBaromVisibWave heightAir tempDewpointWater temp
2017-Jan-22 21:33N 34°28' E 135°04'1919.1
2017-Jan-22 20:33N 34°09' E 135°01'232 7.4
2017-Jan-21 13:28N 35°00' E 139°35'1618.0
2017-Jan-21 12:33N 35°14' E 139°46'1211.5
2017-Jan-21 11:34N 35°23' E 139°39'0 0.0
2017-Jan-21 10:32N 35°23' E 139°39'0 0.0
2017-Jan-21 09:29N 35°23' E 139°39'0 0.0
2017-Jan-21 08:32N 35°23' E 139°39'0 0.0
2017-Jan-21 07:29N 35°23' E 139°39'0 0.0
2017-Jan-21 06:32N 35°23' E 139°39'0 0.0
2017-Jan-21 05:33N 35°23' E 139°39'1312.9
2017-Jan-21 04:33N 35°31' E 139°52'1212.0
2017-Jan-21 03:33N 35°36' E 140°05'0 0.0
2017-Jan-21 02:31N 35°36' E 140°05'0 0.0
2017-Jan-21 01:31N 35°36' E 140°05'0 0.0
2017-Jan-21 00:31N 35°36' E 140°05'0 0.0
2017-Jan-20 23:28N 35°36' E 140°05'0 0.0
2017-Jan-20 22:10N 35°36' E 140°05'0 0.0
2017-Jan-20 21:16N 35°36' E 140°05'0 0.0
2017-Jan-20 20:33N 35°36' E 140°05'1211.8
2017-Jan-20 19:34N 35°29' E 139°53'1313.4
2017-Jan-20 18:33N 35°18' E 139°45'1313.0
2017-Jan-20 17:32N 35°05' E 139°43'244 7.9
2017-Jan-19 10:32N 33°59' E 134°58'2020.4
2017-Jan-19 09:33N 34°19' E 134°59'1818.2
2017-Jan-19 08:33N 34°37' E 134°59'  
2017-Jan-16 23:33N 34°35' E 134°51'1211.9
2017-Jan-16 22:33N 34°28' E 135°03'1919.0
2017-Jan-16 21:34N 34°10' E 134°60'238 7.4
2017-Jan-15 13:34N 35°05' E 139°41'1413.5
2017-Jan-15 12:33N 35°18' E 139°44'7 6.9
2017-Jan-15 11:34N 35°23' E 139°39'0 0.0
2017-Jan-15 10:31N 35°23' E 139°39'0 0.0
2017-Jan-15 09:31N 35°23' E 139°39'0 0.0
2017-Jan-15 08:31N 35°23' E 139°39'0 0.0
2017-Jan-15 07:31N 35°23' E 139°39'0 0.0
2017-Jan-15 06:28N 35°23' E 139°39'0 0.0
2017-Jan-15 05:31N 35°23' E 139°39'1 1.4
2017-Jan-15 04:34N 35°23' E 139°41'1919.1
2017-Jan-15 03:33N 35°34' E 140°00'5 4.6
2017-Jan-15 02:33N 35°36' E 140°05'0 0.0
2017-Jan-15 01:28N 35°36' E 140°05'0 0.0
2017-Jan-15 00:25N 35°36' E 140°05'0 0.0
2017-Jan-14 23:19N 35°36' E 140°05'0 0.0
2017-Jan-14 22:25N 35°36' E 140°05'0 0.0
2017-Jan-14 21:31N 35°36' E 140°05'0 0.0
2017-Jan-14 20:33N 35°36' E 140°05'9 8.9
2017-Jan-14 19:33N 35°31' E 139°56'1515.1
2017-Jan-14 18:33N 35°19' E 139°44'1413.6
2017-Jan-14 17:33N 35°06' E 139°45'244 7.9
2017-Jan-13 10:32N 34°00' E 134°59'1919.7
2017-Jan-13 09:33N 34°20' E 134°59'1717.5
2017-Jan-13 08:33N 34°37' E 135°00'  
Track history (hours):
 
Tides and Currents Weather Stations Pressure Air Temp Water Temp Dewpoint Dewpoint Depression Visibility Wind Speed Wind Dir Waves Ship Positions

Toyofukumaru

Last reported at 2017-Jan-22 21:33 UTC. Time now 2017-Jan-22 22:24 UTC.
Position N 34°28' E 135°04'.

Length 165 m; draft 6.2 m.

Type: Cargo ship. MMSI: 431200688.

Date/timePositionNaut miles runAvg speedWind from/ knotsBaromVisibWave heightAir tempDewpointWater temp
2017-Jan-22 21:33N 34°28' E 135°04'1919.1
2017-Jan-22 20:33N 34°09' E 135°01'232 7.4
2017-Jan-21 13:28N 35°00' E 139°35'1618.0
2017-Jan-21 12:33N 35°14' E 139°46'1211.5
2017-Jan-21 11:34N 35°23' E 139°39'0 0.0
2017-Jan-21 10:32N 35°23' E 139°39'0 0.0
2017-Jan-21 09:29N 35°23' E 139°39'0 0.0
2017-Jan-21 08:32N 35°23' E 139°39'0 0.0
2017-Jan-21 07:29N 35°23' E 139°39'0 0.0
2017-Jan-21 06:32N 35°23' E 139°39'0 0.0
2017-Jan-21 05:33N 35°23' E 139°39'1312.9
2017-Jan-21 04:33N 35°31' E 139°52'1212.0
2017-Jan-21 03:33N 35°36' E 140°05'0 0.0
2017-Jan-21 02:31N 35°36' E 140°05'0 0.0
2017-Jan-21 01:31N 35°36' E 140°05'0 0.0
2017-Jan-21 00:31N 35°36' E 140°05'0 0.0
2017-Jan-20 23:28N 35°36' E 140°05'0 0.0
2017-Jan-20 22:10N 35°36' E 140°05'0 0.0
2017-Jan-20 21:16N 35°36' E 140°05'0 0.0
2017-Jan-20 20:33N 35°36' E 140°05'1211.8
2017-Jan-20 19:34N 35°29' E 139°53'1313.4
2017-Jan-20 18:33N 35°18' E 139°45'1313.0
2017-Jan-20 17:32N 35°05' E 139°43'244 7.9
2017-Jan-19 10:32N 33°59' E 134°58'2020.4
2017-Jan-19 09:33N 34°19' E 134°59'1818.2
2017-Jan-19 08:33N 34°37' E 134°59'  
2017-Jan-16 23:33N 34°35' E 134°51'1211.9
2017-Jan-16 22:33N 34°28' E 135°03'1919.0
2017-Jan-16 21:34N 34°10' E 134°60'238 7.4
2017-Jan-15 13:34N 35°05' E 139°41'1413.5
2017-Jan-15 12:33N 35°18' E 139°44'7 6.9
2017-Jan-15 11:34N 35°23' E 139°39'0 0.0
2017-Jan-15 10:31N 35°23' E 139°39'0 0.0
2017-Jan-15 09:31N 35°23' E 139°39'0 0.0
2017-Jan-15 08:31N 35°23' E 139°39'0 0.0
2017-Jan-15 07:31N 35°23' E 139°39'0 0.0
2017-Jan-15 06:28N 35°23' E 139°39'0 0.0
2017-Jan-15 05:31N 35°23' E 139°39'1 1.4
2017-Jan-15 04:34N 35°23' E 139°41'1919.1
2017-Jan-15 03:33N 35°34' E 140°00'5 4.6
2017-Jan-15 02:33N 35°36' E 140°05'0 0.0
2017-Jan-15 01:28N 35°36' E 140°05'0 0.0
2017-Jan-15 00:25N 35°36' E 140°05'0 0.0
2017-Jan-14 23:19N 35°36' E 140°05'0 0.0
2017-Jan-14 22:25N 35°36' E 140°05'0 0.0
2017-Jan-14 21:31N 35°36' E 140°05'0 0.0
2017-Jan-14 20:33N 35°36' E 140°05'9 8.9
2017-Jan-14 19:33N 35°31' E 139°56'1515.1
2017-Jan-14 18:33N 35°19' E 139°44'1413.6
2017-Jan-14 17:33N 35°06' E 139°45'244 7.9
2017-Jan-13 10:32N 34°00' E 134°59'1919.7
2017-Jan-13 09:33N 34°20' E 134°59'1717.5
2017-Jan-13 08:33N 34°37' E 135°00'  

Dump ship's entire track history